Time;durP1;ratioP1;P1;durP2;ratioP2;P2;SDS_P1;SDS_P2;PMS_P1;PMS_P2;Temp;Humidity;BMP_temperature;BMP_pressure;BME280_temperature;BME280_humidity;BME280_pressure;Samples;Min_cycle;Max_cycle;Signal;HPM_P1;HPM_P2
2024/02/11 00:00:47;;;;;;;238.35;63.60;;;;;;;;;;4983874;28;20181;-46
2024/02/11 00:03:15;;;;;;;238.65;63.15;;;;;;;;;;4975775;28;20230;-45
2024/02/11 00:05:41;;;;;;;239.00;63.00;;;;;;;;;;4982169;28;20193;-46
2024/02/11 00:08:08;;;;;;;236.82;62.65;;;;;;;;;;4979059;28;20559;-45
2024/02/11 00:10:35;;;;;;;239.25;63.00;;;;;;;;;;4985831;28;20176;-46
2024/02/11 00:13:01;;;;;;;236.75;62.95;;;;;;;;;;4975110;28;20232;-45
2024/02/11 00:15:28;;;;;;;237.03;61.23;;;;;;;;;;4982426;28;20205;-45
2024/02/11 00:17:54;;;;;;;238.63;63.33;;;;;;;;;;4984649;28;20820;-47
2024/02/11 00:20:20;;;;;;;240.77;64.50;;;;;;;;;;4982334;28;20182;-45
2024/02/11 00:22:48;;;;;;;237.50;62.97;;;;;;;;;;4978589;28;20216;-46
2024/02/11 00:25:14;;;;;;;240.35;66.47;;;;;;;;;;4989621;28;20779;-46
2024/02/11 00:27:44;;;;;;;236.60;62.97;;;;;;;;;;4982094;28;20257;-46
2024/02/11 00:30:10;;;;;;;237.68;66.00;;;;;;;;;;4985393;28;20491;-45
2024/02/11 00:32:38;;;;;;;233.48;62.22;;;;;;;;;;4980755;28;20269;-46
2024/02/11 00:35:04;;;;;;;234.98;62.63;;;;;;;;;;4983073;28;20606;-46
2024/02/11 00:37:30;;;;;;;236.35;63.25;;;;;;;;;;4981697;28;20166;-46
2024/02/11 00:39:57;;;;;;;237.63;64.97;;;;;;;;;;4982984;28;20187;-46
2024/02/11 00:42:27;;;;;;;234.95;63.28;;;;;;;;;;4985386;28;21067;-46
2024/02/11 00:44:53;;;;;;;233.88;61.83;;;;;;;;;;4986863;28;20215;-47
2024/02/11 00:47:19;;;;;;;236.10;61.95;;;;;;;;;;4982761;28;20204;-47
2024/02/11 00:49:45;;;;;;;235.53;62.30;;;;;;;;;;4979226;28;20270;-45
2024/02/11 00:52:11;;;;;;;234.65;62.60;;;;;;;;;;4980555;28;20452;-44
2024/02/11 00:54:37;;;;;;;237.10;63.17;;;;;;;;;;4981556;28;20174;-46
2024/02/11 00:57:04;;;;;;;237.90;63.47;;;;;;;;;;4984532;28;20958;-47
2024/02/11 00:59:30;;;;;;;237.35;63.42;;;;;;;;;;4982711;28;20440;-45
2024/02/11 01:01:56;;;;;;;237.07;61.90;;;;;;;;;;4984824;28;20216;-45
2024/02/11 01:04:22;;;;;;;236.30;63.47;;;;;;;;;;4981300;28;20471;-46
2024/02/11 01:06:48;;;;;;;233.77;61.77;;;;;;;;;;4976596;28;20568;-46
2024/02/11 01:09:14;;;;;;;236.37;62.17;;;;;;;;;;4984607;28;20415;-46
2024/02/11 01:11:40;;;;;;;237.57;64.47;;;;;;;;;;4973149;28;20421;-48
2024/02/11 01:14:07;;;;;;;236.75;62.85;;;;;;;;;;4973318;28;20401;-46
2024/02/11 01:16:33;;;;;;;236.38;62.55;;;;;;;;;;4972884;28;20185;-46
2024/02/11 01:19:00;;;;;;;235.97;63.37;;;;;;;;;;4973427;28;20185;-48
2024/02/11 01:21:26;;;;;;;236.07;62.92;;;;;;;;;;4979771;28;20531;-47
2024/02/11 01:23:52;;;;;;;235.73;63.80;;;;;;;;;;4982407;28;20291;-48
2024/02/11 01:26:18;;;;;;;239.50;65.05;;;;;;;;;;4983662;28;20424;-46
2024/02/11 01:28:44;;;;;;;236.57;63.27;;;;;;;;;;4975561;28;20650;-47
2024/02/11 01:31:10;;;;;;;238.95;64.65;;;;;;;;;;4979785;28;20404;-47
2024/02/11 01:33:36;;;;;;;236.65;63.60;;;;;;;;;;4981135;28;20664;-48
2024/02/11 01:36:03;;;;;;;237.47;63.73;;;;;;;;;;4980782;28;20201;-44
2024/02/11 01:38:29;;;;;;;236.10;64.30;;;;;;;;;;4980654;28;20493;-45
2024/02/11 01:40:55;;;;;;;235.20;65.50;;;;;;;;;;4985908;28;20280;-47
2024/02/11 01:43:21;;;;;;;235.77;64.03;;;;;;;;;;4982278;28;20468;-46
2024/02/11 01:45:48;;;;;;;238.85;64.97;;;;;;;;;;4978051;28;20523;-46
2024/02/11 01:48:14;;;;;;;237.48;64.57;;;;;;;;;;4977760;28;20645;-46
2024/02/11 01:50:40;;;;;;;237.27;65.22;;;;;;;;;;4972820;28;20178;-46
2024/02/11 01:53:09;;;;;;;235.98;64.25;;;;;;;;;;4978808;28;20239;-45
2024/02/11 01:55:35;;;;;;;236.48;64.78;;;;;;;;;;4981536;28;20202;-49
2024/02/11 01:58:03;;;;;;;237.32;65.95;;;;;;;;;;4984491;28;20189;-46
2024/02/11 02:00:31;;;;;;;234.32;64.13;;;;;;;;;;4981512;28;20215;-45
2024/02/11 02:02:57;;;;;;;240.88;66.35;;;;;;;;;;4975268;28;20676;-47
2024/02/11 02:05:23;;;;;;;238.00;63.78;;;;;;;;;;4977855;28;20212;-46
2024/02/11 02:08:23;;;;;;;237.83;62.70;;;;;;;;;;4971735;28;20201;-45
2024/02/11 02:10:49;;;;;;;238.75;63.80;;;;;;;;;;4970563;28;20768;-45
2024/02/11 02:13:15;;;;;;;236.43;63.63;;;;;;;;;;4980589;28;20181;-45
2024/02/11 02:15:41;;;;;;;237.52;63.30;;;;;;;;;;4971809;28;20193;-46
2024/02/11 02:18:08;;;;;;;235.97;63.20;;;;;;;;;;4980254;28;20185;-46
2024/02/11 02:20:34;;;;;;;235.30;63.50;;;;;;;;;;4980909;28;20412;-46
2024/02/11 02:23:01;;;;;;;236.95;65.40;;;;;;;;;;4990304;28;20201;-46
2024/02/11 02:25:27;;;;;;;234.55;62.42;;;;;;;;;;4981199;28;20612;-46
2024/02/11 02:27:53;;;;;;;233.95;61.65;;;;;;;;;;4977135;28;20667;-46
2024/02/11 02:30:19;;;;;;;236.90;63.60;;;;;;;;;;4989982;28;20220;-46
2024/02/11 02:32:44;;;;;;;235.37;61.60;;;;;;;;;;4972262;28;20650;-46
2024/02/11 02:35:11;;;;;;;241.97;65.70;;;;;;;;;;4988478;28;20412;-46
2024/02/11 02:37:37;;;;;;;241.40;64.75;;;;;;;;;;4978281;28;20536;-46
2024/02/11 02:40:03;;;;;;;236.83;61.50;;;;;;;;;;4980519;28;20192;-46
2024/02/11 02:42:29;;;;;;;236.60;61.05;;;;;;;;;;4985948;28;20413;-46
2024/02/11 02:44:55;;;;;;;240.03;63.57;;;;;;;;;;4970950;28;20248;-46
2024/02/11 02:47:21;;;;;;;239.03;62.10;;;;;;;;;;4952495;28;20458;-46
2024/02/11 02:49:47;;;;;;;236.05;61.70;;;;;;;;;;4968910;28;20417;-46
2024/02/11 02:52:13;;;;;;;236.05;60.05;;;;;;;;;;4962087;28;20708;-46
2024/02/11 02:54:43;;;;;;;235.05;60.05;;;;;;;;;;4971566;28;20177;-46
2024/02/11 02:57:10;;;;;;;235.27;60.78;;;;;;;;;;4966807;28;20226;-46
2024/02/11 02:59:36;;;;;;;238.30;62.22;;;;;;;;;;4953800;28;20199;-46
2024/02/11 03:02:03;;;;;;;235.25;61.58;;;;;;;;;;4976295;28;20191;-46
2024/02/11 03:04:29;;;;;;;235.57;60.50;;;;;;;;;;4958816;28;20198;-46
2024/02/11 03:06:55;;;;;;;238.00;62.30;;;;;;;;;;4968617;28;20190;-46
2024/02/11 03:09:21;;;;;;;233.95;60.30;;;;;;;;;;4966952;28;20162;-46
2024/02/11 03:11:49;;;;;;;235.55;61.30;;;;;;;;;;4961138;28;20213;-46
2024/02/11 03:14:15;;;;;;;236.30;61.63;;;;;;;;;;4974404;28;20664;-46
2024/02/11 03:16:46;;;;;;;234.80;60.85;;;;;;;;;;4955975;28;20302;-46
2024/02/11 03:19:15;;;;;;;233.90;60.15;;;;;;;;;;4973065;28;20174;-46
2024/02/11 03:21:41;;;;;;;236.52;61.30;;;;;;;;;;4962050;28;20189;-46
2024/02/11 03:24:08;;;;;;;236.55;62.33;;;;;;;;;;4965334;28;20278;-46
2024/02/11 03:26:34;;;;;;;237.55;61.13;;;;;;;;;;4974458;28;20558;-46
2024/02/11 03:29:00;;;;;;;239.43;63.72;;;;;;;;;;4973425;28;20178;-46
2024/02/11 03:31:27;;;;;;;235.07;60.17;;;;;;;;;;4975192;28;20188;-46
2024/02/11 03:33:53;;;;;;;238.25;61.92;;;;;;;;;;4958000;28;20931;-46
2024/02/11 03:36:19;;;;;;;238.30;62.67;;;;;;;;;;4968720;28;20201;-46
2024/02/11 03:38:45;;;;;;;238.17;61.57;;;;;;;;;;4966263;28;20229;-46
2024/02/11 03:41:12;;;;;;;237.43;61.53;;;;;;;;;;4960976;28;20808;-46
2024/02/11 03:43:38;;;;;;;239.60;64.13;;;;;;;;;;4973497;28;20276;-46
2024/02/11 03:46:06;;;;;;;238.30;61.28;;;;;;;;;;4955413;28;20194;-46
2024/02/11 03:48:32;;;;;;;240.23;62.83;;;;;;;;;;4972434;28;20270;-46
2024/02/11 03:51:00;;;;;;;238.68;62.33;;;;;;;;;;4961746;28;20265;-46
2024/02/11 03:53:26;;;;;;;239.48;62.70;;;;;;;;;;4967342;28;20269;-46
2024/02/11 03:55:52;;;;;;;238.90;62.38;;;;;;;;;;4968992;28;20246;-46
2024/02/11 03:58:19;;;;;;;237.90;61.92;;;;;;;;;;4956473;28;20190;-46
2024/02/11 04:00:45;;;;;;;239.30;63.10;;;;;;;;;;4974739;28;20645;-46
2024/02/11 04:03:17;;;;;;;237.02;60.95;;;;;;;;;;4957751;28;20238;-46
2024/02/11 04:05:43;;;;;;;239.85;63.08;;;;;;;;;;4967989;28;20197;-46
2024/02/11 04:08:11;;;;;;;238.95;62.45;;;;;;;;;;4969136;28;20181;-46
2024/02/11 04:10:39;;;;;;;205.50;58.60;;;;;;;;;;4973943;28;20710;-46
2024/02/11 04:13:05;;;;;;;214.95;62.83;;;;;;;;;;4973143;28;20522;-46
2024/02/11 04:15:31;;;;;;;241.57;62.40;;;;;;;;;;4974023;28;20442;-46
2024/02/11 04:18:07;;;;;;;242.82;64.30;;;;;;;;;;4973889;28;20183;-46
2024/02/11 04:20:33;;;;;;;241.85;63.33;;;;;;;;;;4967136;28;20205;-46
2024/02/11 04:23:00;;;;;;;239.52;61.33;;;;;;;;;;4973783;28;20202;-46
2024/02/11 04:25:29;;;;;;;242.70;64.43;;;;;;;;;;4966753;28;20199;-46
2024/02/11 04:27:55;;;;;;;243.75;64.70;;;;;;;;;;4958131;28;20222;-46
2024/02/11 04:30:21;;;;;;;241.65;64.32;;;;;;;;;;4974304;28;20587;-46
2024/02/11 04:32:51;;;;;;;243.40;65.13;;;;;;;;;;4955225;28;20660;-46
2024/02/11 04:35:17;;;;;;;245.05;68.22;;;;;;;;;;4970191;28;20169;-46
2024/02/11 04:37:46;;;;;;;238.75;64.68;;;;;;;;;;4962365;28;20256;-45
2024/02/11 04:40:13;;;;;;;240.90;66.10;;;;;;;;;;4962428;28;20566;-46
2024/02/11 04:42:45;;;;;;;238.93;65.20;;;;;;;;;;4969707;28;20189;-46
2024/02/11 04:45:18;;;;;;;249.80;74.25;;;;;;;;;;4957917;28;20234;-46
2024/02/11 04:47:48;;;;;;;239.82;65.15;;;;;;;;;;4973713;28;20409;-46
2024/02/11 04:50:15;;;;;;;239.90;66.35;;;;;;;;;;4973363;28;20180;-46
2024/02/11 04:52:48;;;;;;;240.27;67.10;;;;;;;;;;4965983;28;20264;-46
2024/02/11 04:55:14;;;;;;;247.45;71.80;;;;;;;;;;4972874;28;20244;-46
2024/02/11 04:57:41;;;;;;;240.98;67.53;;;;;;;;;;4966503;28;20170;-46
2024/02/11 05:00:10;;;;;;;237.80;65.43;;;;;;;;;;4957311;28;20571;-46
2024/02/11 05:02:43;;;;;;;238.57;64.55;;;;;;;;;;4973819;28;20650;-46
2024/02/11 05:05:11;;;;;;;242.85;70.00;;;;;;;;;;4954045;28;20173;-46
2024/02/11 05:07:37;;;;;;;243.35;70.57;;;;;;;;;;4955614;28;20175;-46
2024/02/11 05:10:05;;;;;;;237.57;63.70;;;;;;;;;;4984151;28;20170;-46
2024/02/11 05:12:31;;;;;;;239.63;66.60;;;;;;;;;;4982171;28;20411;-46
2024/02/11 05:14:57;;;;;;;236.03;63.57;;;;;;;;;;4984073;28;20217;-46
2024/02/11 05:17:25;;;;;;;235.93;65.73;;;;;;;;;;4980669;28;20455;-47
2024/02/11 05:19:51;;;;;;;235.70;65.03;;;;;;;;;;4989931;28;20731;-46
2024/02/11 05:22:17;;;;;;;235.13;63.30;;;;;;;;;;4984892;28;20275;-46
2024/02/11 05:24:45;;;;;;;235.00;65.40;;;;;;;;;;4980206;28;20468;-46
2024/02/11 05:27:12;;;;;;;238.18;65.35;;;;;;;;;;4986496;28;20513;-46
2024/02/11 05:29:38;;;;;;;236.68;64.85;;;;;;;;;;4981596;28;20635;-46
2024/02/11 05:32:08;;;;;;;235.07;63.70;;;;;;;;;;4982203;28;20170;-46
2024/02/11 05:34:34;;;;;;;237.88;65.05;;;;;;;;;;4980742;28;20424;-46
2024/02/11 05:37:00;;;;;;;236.93;64.85;;;;;;;;;;4986805;28;20688;-46
2024/02/11 05:39:30;;;;;;;238.07;64.57;;;;;;;;;;4984194;28;20235;-46
2024/02/11 05:41:56;;;;;;;240.48;65.70;;;;;;;;;;4979173;28;20423;-46
2024/02/11 05:44:22;;;;;;;240.50;66.50;;;;;;;;;;4979478;28;20253;-46
2024/02/11 05:46:48;;;;;;;239.60;65.80;;;;;;;;;;4980287;28;20202;-46
2024/02/11 05:49:14;;;;;;;241.80;67.30;;;;;;;;;;4980576;28;20481;-46
2024/02/11 05:51:40;;;;;;;239.10;64.53;;;;;;;;;;4981229;28;20734;-46
2024/02/11 05:54:06;;;;;;;241.07;66.67;;;;;;;;;;4984752;28;20789;-46
2024/02/11 05:56:32;;;;;;;241.90;68.53;;;;;;;;;;4982864;28;20944;-46
2024/02/11 05:58:59;;;;;;;239.65;65.95;;;;;;;;;;4977540;28;20429;-46
2024/02/11 06:01:25;;;;;;;239.10;64.55;;;;;;;;;;4977909;28;20181;-46
2024/02/11 06:03:51;;;;;;;238.63;63.97;;;;;;;;;;4983807;28;20583;-46
2024/02/11 06:06:17;;;;;;;240.43;64.77;;;;;;;;;;4977571;28;20436;-46
2024/02/11 06:08:42;;;;;;;241.85;67.13;;;;;;;;;;4972040;28;20515;-46
2024/02/11 06:11:11;;;;;;;237.67;62.60;;;;;;;;;;4976660;28;20172;-46
2024/02/11 06:13:38;;;;;;;236.75;63.40;;;;;;;;;;4975233;28;20468;-46
2024/02/11 06:16:06;;;;;;;236.77;62.47;;;;;;;;;;4975643;28;20687;-46
2024/02/11 06:18:32;;;;;;;238.70;63.47;;;;;;;;;;4983442;28;20600;-46
2024/02/11 06:20:58;;;;;;;237.88;64.00;;;;;;;;;;4980649;28;20181;-46
2024/02/11 06:23:24;;;;;;;239.18;63.92;;;;;;;;;;4980712;28;20580;-46
2024/02/11 06:25:52;;;;;;;237.30;62.40;;;;;;;;;;4981762;28;20182;-46
2024/02/11 06:28:19;;;;;;;239.35;63.78;;;;;;;;;;4980080;28;20401;-46
2024/02/11 06:30:45;;;;;;;240.70;64.90;;;;;;;;;;4980093;28;20177;-46
2024/02/11 06:33:11;;;;;;;238.07;63.00;;;;;;;;;;4980071;28;20185;-46
2024/02/11 06:35:39;;;;;;;237.70;62.42;;;;;;;;;;4984150;28;20671;-46
2024/02/11 06:38:05;;;;;;;237.90;62.95;;;;;;;;;;4971782;28;20593;-46
2024/02/11 06:40:31;;;;;;;241.10;65.57;;;;;;;;;;4979934;28;20201;-46
2024/02/11 06:42:59;;;;;;;238.27;62.27;;;;;;;;;;4979957;28;20459;-46
2024/02/11 06:45:25;;;;;;;239.82;62.90;;;;;;;;;;4979694;28;20774;-46
2024/02/11 06:47:52;;;;;;;239.50;63.47;;;;;;;;;;4982107;28;20590;-46
2024/02/11 06:50:20;;;;;;;239.52;62.97;;;;;;;;;;4982727;28;20326;-46
2024/02/11 06:52:49;;;;;;;238.70;62.72;;;;;;;;;;4978810;28;20779;-46
2024/02/11 06:55:16;;;;;;;243.23;66.57;;;;;;;;;;4983014;28;20404;-46
2024/02/11 06:57:44;;;;;;;238.65;63.63;;;;;;;;;;4971845;28;20170;-46
2024/02/11 07:00:11;;;;;;;237.90;63.05;;;;;;;;;;4980211;28;20177;-46
2024/02/11 07:02:37;;;;;;;238.18;62.88;;;;;;;;;;4980038;28;20224;-46
2024/02/11 07:05:05;;;;;;;237.95;62.35;;;;;;;;;;4983737;28;20225;-46
2024/02/11 07:07:31;;;;;;;239.23;63.83;;;;;;;;;;4979493;28;20252;-46
2024/02/11 07:09:57;;;;;;;237.90;62.47;;;;;;;;;;4981554;28;20243;-46
2024/02/11 07:12:23;;;;;;;234.10;59.97;;;;;;;;;;4972642;28;20409;-46
2024/02/11 07:14:50;;;;;;;238.70;63.78;;;;;;;;;;4981149;28;20405;-46
2024/02/11 07:17:16;;;;;;;236.95;60.75;;;;;;;;;;4983321;28;20190;-46
2024/02/11 07:19:43;;;;;;;234.75;59.45;;;;;;;;;;4980305;28;20181;-46
2024/02/11 07:22:09;;;;;;;236.80;61.50;;;;;;;;;;4981927;28;20185;-46
2024/02/11 07:24:37;;;;;;;235.32;60.72;;;;;;;;;;4971403;28;20409;-46
2024/02/11 07:27:06;;;;;;;235.68;62.03;;;;;;;;;;4976574;28;20566;-46
2024/02/11 07:29:32;;;;;;;233.30;58.67;;;;;;;;;;4971561;28;20170;-46
2024/02/11 07:31:58;;;;;;;235.52;61.42;;;;;;;;;;4973220;28;20169;-46
2024/02/11 07:34:24;;;;;;;235.13;60.63;;;;;;;;;;4976474;28;20180;-46
2024/02/11 07:36:50;;;;;;;236.15;61.40;;;;;;;;;;4971321;28;20447;-46
2024/02/11 07:39:17;;;;;;;236.30;60.80;;;;;;;;;;4984561;28;20280;-46
2024/02/11 07:41:44;;;;;;;234.50;60.47;;;;;;;;;;4981445;28;20420;-45
2024/02/11 07:44:10;;;;;;;236.98;60.78;;;;;;;;;;4972114;28;20247;-46
2024/02/11 07:46:39;;;;;;;238.20;65.30;;;;;;;;;;4971750;28;20196;-46
2024/02/11 07:49:05;;;;;;;235.38;62.97;;;;;;;;;;4975416;28;20579;-46
2024/02/11 07:51:31;;;;;;;234.98;63.47;;;;;;;;;;4992144;28;20177;-46
2024/02/11 07:53:57;;;;;;;236.65;63.47;;;;;;;;;;4977673;28;20178;-45
2024/02/11 07:56:23;;;;;;;239.57;65.75;;;;;;;;;;4983678;28;20199;-46
2024/02/11 07:58:50;;;;;;;237.40;63.72;;;;;;;;;;4988560;28;20626;-46
2024/02/11 08:01:15;;;;;;;238.60;66.38;;;;;;;;;;4976394;28;20181;-46
2024/02/11 08:03:41;;;;;;;237.43;66.03;;;;;;;;;;4976482;28;20581;-46
2024/02/11 08:06:09;;;;;;;239.52;67.88;;;;;;;;;;4981778;28;20459;-47
2024/02/11 08:08:36;;;;;;;237.38;68.15;;;;;;;;;;4981414;28;20170;-46
2024/02/11 08:11:01;;;;;;;234.95;65.70;;;;;;;;;;4974577;28;20177;-46
2024/02/11 08:13:28;;;;;;;236.37;67.93;;;;;;;;;;4987419;28;20180;-46
2024/02/11 08:15:54;;;;;;;235.43;65.72;;;;;;;;;;4982073;28;20852;-46
2024/02/11 08:18:20;;;;;;;236.73;68.10;;;;;;;;;;4983111;28;20272;-46
2024/02/11 08:20:46;;;;;;;239.35;70.90;;;;;;;;;;4983595;28;20190;-46
2024/02/11 08:23:12;;;;;;;235.43;67.90;;;;;;;;;;4982296;28;20568;-46
2024/02/11 08:25:38;;;;;;;238.17;68.07;;;;;;;;;;4982042;28;20841;-46
2024/02/11 08:28:05;;;;;;;235.95;67.03;;;;;;;;;;4987861;28;20401;-46
2024/02/11 08:30:30;;;;;;;237.38;67.30;;;;;;;;;;4986016;28;20219;-47
2024/02/11 08:32:58;;;;;;;237.67;70.10;;;;;;;;;;4980138;28;20275;-46
2024/02/11 08:35:24;;;;;;;236.30;65.78;;;;;;;;;;4980173;28;20901;-46
2024/02/11 08:37:50;;;;;;;238.45;69.95;;;;;;;;;;4983667;28;20177;-46
2024/02/11 08:40:16;;;;;;;236.77;69.20;;;;;;;;;;4985241;28;20195;-46
2024/02/11 08:42:42;;;;;;;240.25;74.28;;;;;;;;;;4983283;28;20189;-46
2024/02/11 08:45:08;;;;;;;242.65;73.82;;;;;;;;;;4985250;28;20216;-46
2024/02/11 08:47:37;;;;;;;237.65;68.70;;;;;;;;;;4984516;28;20173;-46
2024/02/11 08:50:04;;;;;;;236.82;68.50;;;;;;;;;;4971145;28;20593;-46
2024/02/11 08:52:31;;;;;;;235.18;67.38;;;;;;;;;;4977723;28;20173;-46
2024/02/11 08:54:57;;;;;;;237.30;70.20;;;;;;;;;;4984283;28;20212;-46
2024/02/11 08:57:26;;;;;;;238.03;68.60;;;;;;;;;;4985786;28;20227;-48
2024/02/11 08:59:52;;;;;;;235.18;66.68;;;;;;;;;;4993819;28;20424;-46
2024/02/11 09:02:18;;;;;;;239.90;72.20;;;;;;;;;;4976985;28;20196;-46
2024/02/11 09:04:44;;;;;;;237.47;70.67;;;;;;;;;;4987108;28;20495;-48
2024/02/11 09:07:10;;;;;;;237.25;69.70;;;;;;;;;;4984655;28;20953;-48
2024/02/11 09:09:36;;;;;;;233.88;64.80;;;;;;;;;;4979196;28;20540;-48
2024/02/11 09:12:02;;;;;;;237.85;67.43;;;;;;;;;;4993332;28;20171;-48
2024/02/11 09:14:29;;;;;;;237.77;66.68;;;;;;;;;;4974492;28;20539;-48
2024/02/11 09:16:59;;;;;;;235.52;65.85;;;;;;;;;;4990513;28;20711;-46
2024/02/11 09:19:26;;;;;;;232.48;62.13;;;;;;;;;;4980021;28;20594;-45
2024/02/11 09:21:52;;;;;;;236.20;65.40;;;;;;;;;;4964994;28;20190;-46
2024/02/11 09:24:18;;;;;;;234.40;63.83;;;;;;;;;;4966172;28;20676;-46
2024/02/11 09:26:44;;;;;;;237.77;67.55;;;;;;;;;;4972407;28;20200;-46
2024/02/11 09:29:10;;;;;;;234.05;64.32;;;;;;;;;;4973638;28;20173;-46
2024/02/11 09:31:37;;;;;;;233.65;63.65;;;;;;;;;;4973168;28;20664;-46
2024/02/11 09:34:03;;;;;;;234.50;64.22;;;;;;;;;;4973443;28;20276;-48
2024/02/11 09:36:28;;;;;;;239.05;66.65;;;;;;;;;;4964830;28;20257;-46
2024/02/11 09:38:54;;;;;;;239.03;67.10;;;;;;;;;;4971692;28;20581;-48
2024/02/11 09:41:21;;;;;;;240.07;72.40;;;;;;;;;;4973800;28;20831;-47
2024/02/11 09:43:48;;;;;;;232.95;63.25;;;;;;;;;;4974345;28;20457;-47
2024/02/11 09:46:17;;;;;;;235.65;64.22;;;;;;;;;;4957869;28;20571;-46
2024/02/11 09:48:44;;;;;;;236.82;65.05;;;;;;;;;;4967284;28;20552;-47
2024/02/11 09:51:12;;;;;;;238.80;66.22;;;;;;;;;;4964616;28;20209;-46
2024/02/11 09:53:42;;;;;;;237.68;65.95;;;;;;;;;;4968281;28;20177;-46
2024/02/11 09:56:08;;;;;;;234.73;63.80;;;;;;;;;;4972004;28;20181;-47
2024/02/11 09:58:34;;;;;;;234.15;63.88;;;;;;;;;;4954627;28;20189;-48
2024/02/11 10:01:00;;;;;;;234.43;62.95;;;;;;;;;;4971419;28;20550;-47
2024/02/11 10:03:30;;;;;;;240.48;72.03;;;;;;;;;;4960788;28;20288;-48
2024/02/11 10:05:58;;;;;;;237.25;66.13;;;;;;;;;;4963353;28;20193;-47
2024/02/11 10:08:24;;;;;;;236.77;65.55;;;;;;;;;;4968051;28;20170;-48
2024/02/11 10:10:50;;;;;;;235.27;62.72;;;;;;;;;;4956188;28;20642;-48
2024/02/11 10:13:19;;;;;;;234.73;63.13;;;;;;;;;;4974572;28;20182;-47
2024/02/11 10:15:49;;;;;;;234.65;62.28;;;;;;;;;;4955999;28;20205;-47
2024/02/11 10:18:18;;;;;;;234.43;63.00;;;;;;;;;;4968952;28;20264;-46
2024/02/11 10:20:48;;;;;;;234.63;62.58;;;;;;;;;;4962398;28;20182;-47
2024/02/11 10:23:18;;;;;;;234.82;62.50;;;;;;;;;;4961504;28;20201;-46
2024/02/11 10:25:47;;;;;;;232.25;60.40;;;;;;;;;;4969156;28;20186;-46
2024/02/11 10:28:14;;;;;;;231.35;60.15;;;;;;;;;;4953913;28;20174;-46
2024/02/11 10:30:40;;;;;;;235.02;63.17;;;;;;;;;;4972946;28;20694;-47
2024/02/11 10:33:07;;;;;;;237.07;65.30;;;;;;;;;;4957079;28;20178;-46
2024/02/11 10:35:36;;;;;;;238.38;65.40;;;;;;;;;;4964896;28;20193;-46
2024/02/11 10:38:08;;;;;;;241.27;69.97;;;;;;;;;;4964888;28;20894;-46
2024/02/11 10:40:37;;;;;;;239.73;67.15;;;;;;;;;;4977019;28;20177;-46
2024/02/11 10:43:07;;;;;;;239.40;69.35;;;;;;;;;;4972367;28;20264;-46
2024/02/11 10:45:35;;;;;;;239.27;67.93;;;;;;;;;;4972797;28;20728;-47
2024/02/11 10:48:01;;;;;;;241.88;70.70;;;;;;;;;;4975024;28;20262;-46
2024/02/11 10:50:28;;;;;;;239.63;68.75;;;;;;;;;;4975211;28;20210;-47
2024/02/11 10:52:55;;;;;;;240.85;70.13;;;;;;;;;;4973050;28;20224;-47
2024/02/11 10:55:22;;;;;;;243.15;70.63;;;;;;;;;;4972606;28;20178;-48
2024/02/11 10:57:55;;;;;;;245.38;74.20;;;;;;;;;;4973018;28;20221;-45
2024/02/11 11:00:21;;;;;;;242.23;71.63;;;;;;;;;;4973178;28;20545;-46
2024/02/11 11:02:49;;;;;;;242.45;70.28;;;;;;;;;;4972847;28;20181;-46
2024/02/11 11:05:17;;;;;;;246.65;73.47;;;;;;;;;;4972380;28;20178;-48
2024/02/11 11:07:46;;;;;;;243.93;73.78;;;;;;;;;;4971711;28;20179;-49
2024/02/11 11:10:12;;;;;;;249.90;79.60;;;;;;;;;;4972924;28;20643;-49
2024/02/11 11:12:46;;;;;;;243.07;71.40;;;;;;;;;;4973242;28;20529;-47
2024/02/11 11:15:12;;;;;;;245.60;76.63;;;;;;;;;;4972841;28;20251;-47
2024/02/11 11:17:38;;;;;;;244.23;75.28;;;;;;;;;;4973264;28;20541;-46
2024/02/11 11:20:12;;;;;;;243.00;76.20;;;;;;;;;;4972788;28;20191;-46
2024/02/11 11:22:39;;;;;;;246.40;78.35;;;;;;;;;;4974305;28;20404;-46
2024/02/11 11:25:11;;;;;;;250.50;83.90;;;;;;;;;;4975769;28;20405;-47
2024/02/11 11:27:37;;;;;;;245.88;78.63;;;;;;;;;;4976770;28;20162;-46
2024/02/11 11:30:06;;;;;;;244.70;77.53;;;;;;;;;;4977232;28;20252;-46
2024/02/11 11:32:33;;;;;;;242.40;74.45;;;;;;;;;;4976899;28;20179;-47
2024/02/11 11:35:00;;;;;;;245.38;76.53;;;;;;;;;;4977034;28;20218;-47
2024/02/11 11:37:26;;;;;;;244.98;76.65;;;;;;;;;;4976774;28;20205;-46
2024/02/11 11:39:54;;;;;;;245.43;77.10;;;;;;;;;;4976730;28;20197;-47
2024/02/11 11:42:21;;;;;;;246.65;79.30;;;;;;;;;;4976176;28;20179;-48
2024/02/11 11:44:47;;;;;;;246.27;77.80;;;;;;;;;;4976188;28;20212;-48
2024/02/11 11:47:13;;;;;;;255.20;88.47;;;;;;;;;;4976431;28;20187;-46
2024/02/11 11:49:39;;;;;;;249.57;82.80;;;;;;;;;;4969223;28;20425;-47
2024/02/11 11:52:08;;;;;;;249.13;81.93;;;;;;;;;;4990600;28;20191;-46
2024/02/11 11:54:34;;;;;;;248.38;80.70;;;;;;;;;;4976395;28;20565;-47
2024/02/11 11:57:01;;;;;;;246.63;78.43;;;;;;;;;;4975868;28;20292;-48
2024/02/11 11:59:27;;;;;;;247.13;77.43;;;;;;;;;;4975479;28;20698;-48
2024/02/11 12:01:53;;;;;;;248.65;81.25;;;;;;;;;;4976276;28;20190;-47
2024/02/11 12:04:20;;;;;;;246.50;80.45;;;;;;;;;;4976415;28;20578;-47
2024/02/11 12:06:46;;;;;;;247.88;79.72;;;;;;;;;;4975951;28;20262;-47
2024/02/11 12:09:14;;;;;;;246.88;79.28;;;;;;;;;;4976294;28;20222;-46
2024/02/11 12:11:48;;;;;;;246.27;80.22;;;;;;;;;;4976284;28;20198;-46
2024/02/11 12:14:14;;;;;;;245.32;78.80;;;;;;;;;;4976188;28;20236;-46
2024/02/11 12:16:40;;;;;;;246.05;78.60;;;;;;;;;;4975217;28;20213;-47
2024/02/11 12:19:07;;;;;;;246.23;78.05;;;;;;;;;;4975830;28;20217;-47
2024/02/11 12:21:33;;;;;;;246.50;79.28;;;;;;;;;;4976391;28;20193;-47
2024/02/11 12:24:04;;;;;;;245.57;78.50;;;;;;;;;;4975864;28;20240;-46
2024/02/11 12:26:30;;;;;;;245.25;80.25;;;;;;;;;;4975900;28;20429;-48
2024/02/11 12:28:58;;;;;;;246.05;78.65;;;;;;;;;;4985259;28;20180;-48
2024/02/11 12:31:26;;;;;;;245.88;80.65;;;;;;;;;;4992976;28;20184;-48
2024/02/11 12:33:52;;;;;;;244.75;75.95;;;;;;;;;;4979427;28;20198;-48
2024/02/11 12:36:23;;;;;;;246.32;79.15;;;;;;;;;;4983625;28;20253;-48
2024/02/11 12:38:52;;;;;;;246.98;79.25;;;;;;;;;;4987250;28;20595;-48
2024/02/11 12:41:18;;;;;;;243.52;79.10;;;;;;;;;;4977006;28;20177;-46
2024/02/11 12:43:48;;;;;;;245.20;79.25;;;;;;;;;;4993581;28;20210;-47
2024/02/11 12:46:14;;;;;;;246.70;81.70;;;;;;;;;;4992489;28;20205;-48
2024/02/11 12:48:41;;;;;;;244.75;79.25;;;;;;;;;;4978166;28;20183;-48
2024/02/11 12:51:11;;;;;;;246.45;79.30;;;;;;;;;;4985247;28;20199;-47
2024/02/11 12:53:38;;;;;;;245.82;79.65;;;;;;;;;;4986879;28;20186;-48
2024/02/11 12:56:05;;;;;;;242.50;77.05;;;;;;;;;;4988627;28;20217;-48
2024/02/11 12:58:32;;;;;;;248.27;82.07;;;;;;;;;;4973502;28;20555;-48
2024/02/11 13:00:58;;;;;;;245.75;80.13;;;;;;;;;;4954492;28;20232;-46
2024/02/11 13:03:25;;;;;;;248.10;81.65;;;;;;;;;;4954130;28;20202;-46
2024/02/11 13:05:52;;;;;;;244.40;76.28;;;;;;;;;;4964710;28;20193;-49
2024/02/11 13:08:19;;;;;;;243.20;77.60;;;;;;;;;;4971963;28;20701;-47
2024/02/11 13:10:45;;;;;;;246.30;78.25;;;;;;;;;;4972367;28;20215;-46
2024/02/11 13:13:11;;;;;;;257.87;89.30;;;;;;;;;;4970136;28;20205;-47
2024/02/11 13:15:37;;;;;;;247.90;81.03;;;;;;;;;;4971539;28;20440;-46
2024/02/11 13:18:03;;;;;;;245.52;78.55;;;;;;;;;;4963538;28;20184;-48
2024/02/11 13:20:29;;;;;;;249.27;83.43;;;;;;;;;;4973017;28;20175;-48
2024/02/11 13:22:55;;;;;;;249.43;82.63;;;;;;;;;;4972788;28;20904;-48
2024/02/11 13:25:22;;;;;;;252.47;85.00;;;;;;;;;;4971946;28;20186;-49
2024/02/11 13:27:48;;;;;;;249.10;81.85;;;;;;;;;;4972481;28;20841;-48
2024/02/11 13:30:14;;;;;;;251.20;83.57;;;;;;;;;;4954472;28;20185;-47
2024/02/11 13:32:40;;;;;;;250.52;84.30;;;;;;;;;;4968810;28;20412;-49
2024/02/11 13:35:10;;;;;;;250.95;82.47;;;;;;;;;;4971864;28;20224;-48
2024/02/11 13:37:37;;;;;;;247.27;79.60;;;;;;;;;;4965320;28;20717;-47
2024/02/11 13:40:04;;;;;;;247.82;80.72;;;;;;;;;;4957681;28;20181;-46
2024/02/11 13:42:30;;;;;;;254.65;87.05;;;;;;;;;;4972207;28;20282;-47
2024/02/11 13:44:56;;;;;;;250.57;80.88;;;;;;;;;;4951482;28;20697;-48
2024/02/11 13:47:22;;;;;;;246.20;81.35;;;;;;;;;;4968228;28;20206;-46
2024/02/11 13:49:48;;;;;;;246.17;80.93;;;;;;;;;;4961998;28;20184;-47
2024/02/11 13:52:13;;;;;;;251.45;84.93;;;;;;;;;;4960414;28;20407;-47
2024/02/11 13:54:40;;;;;;;249.00;83.03;;;;;;;;;;4972519;28;20185;-46
2024/02/11 13:57:06;;;;;;;246.30;80.93;;;;;;;;;;4973001;28;20428;-46
2024/02/11 13:59:33;;;;;;;246.83;81.10;;;;;;;;;;4954532;28;20248;-46
2024/02/11 14:01:59;;;;;;;246.93;80.35;;;;;;;;;;4968807;28;20423;-46